Time;durP1;ratioP1;P1;durP2;ratioP2;P2;SDS_P1;SDS_P2;PMS_P1;PMS_P2;Temp;Humidity;BMP_temperature;BMP_pressure;BME280_temperature;BME280_humidity;BME280_pressure;Samples;Min_cycle;Max_cycle;Signal;HPM_P1;HPM_P2
2023/07/25 00:02:13;;;;;;;2.42;1.38;;;19.60;88.40;;;;;;5016258;28;20496;-80
2023/07/25 00:04:38;;;;;;;3.35;1.50;;;19.50;88.30;;;;;;4998261;28;20025;-81
2023/07/25 00:07:04;;;;;;;4.32;1.60;;;19.60;88.40;;;;;;4998620;28;20384;-81
2023/07/25 00:09:30;;;;;;;4.38;1.98;;;19.50;88.30;;;;;;4998909;28;20021;-81
2023/07/25 00:11:55;;;;;;;4.28;1.55;;;19.50;88.30;;;;;;5016929;28;20121;-81
2023/07/25 00:14:21;;;;;;;4.13;1.80;;;19.60;88.30;;;;;;4999006;28;20018;-79
2023/07/25 00:16:46;;;;;;;3.25;1.48;;;19.60;88.30;;;;;;4998948;28;20058;-81
2023/07/25 00:19:12;;;;;;;2.58;1.58;;;19.60;88.10;;;;;;4999167;28;20034;-81
2023/07/25 00:21:37;;;;;;;3.67;1.35;;;19.60;88.10;;;;;;4998813;28;20072;-80
2023/07/25 00:24:04;;;;;;;3.33;1.35;;;19.60;88.00;;;;;;4998756;28;20026;-81
2023/07/25 00:26:29;;;;;;;2.10;1.25;;;19.60;87.90;;;;;;4999575;28;20026;-81
2023/07/25 00:28:54;;;;;;;2.15;1.35;;;19.60;87.80;;;;;;4998897;28;20094;-81
2023/07/25 00:31:20;;;;;;;2.85;1.52;;;19.60;87.70;;;;;;5017172;28;20077;-81
2023/07/25 00:33:45;;;;;;;2.45;1.30;;;19.60;87.60;;;;;;4998127;28;20022;-81
2023/07/25 00:36:11;;;;;;;2.95;1.45;;;19.70;87.70;;;;;;4998979;28;20049;-81
2023/07/25 00:38:36;;;;;;;3.53;1.60;;;19.70;87.60;;;;;;4998671;28;20021;-81
2023/07/25 00:41:02;;;;;;;2.60;1.50;;;19.70;87.60;;;;;;4998618;28;20026;-81
2023/07/25 00:43:27;;;;;;;3.30;1.58;;;19.70;87.60;;;;;;4998246;28;20026;-81
2023/07/25 00:45:53;;;;;;;2.30;1.33;;;19.70;87.60;;;;;;4998307;28;20018;-81
2023/07/25 00:48:19;;;;;;;3.53;1.40;;;19.60;87.70;;;;;;4998275;28;20118;-81
2023/07/25 00:50:45;;;;;;;4.47;1.80;;;19.60;87.80;;;;;;4998025;28;20088;-81
2023/07/25 00:53:12;;;;;;;3.10;1.40;;;19.60;87.80;;;;;;5016129;28;20030;-81
2023/07/25 00:55:38;;;;;;;3.97;1.52;;;19.60;87.90;;;;;;4997791;28;20064;-81
2023/07/25 00:58:04;;;;;;;3.78;1.50;;;19.60;88.00;;;;;;4997685;28;20030;-81
2023/07/25 01:00:29;;;;;;;3.25;1.55;;;19.60;88.00;;;;;;5015341;28;20018;-81
2023/07/25 01:02:55;;;;;;;2.78;1.40;;;19.60;88.10;;;;;;4992472;28;20030;-81
2023/07/25 01:05:22;;;;;;;2.47;1.23;;;19.60;88.20;;;;;;5015141;28;20026;-81
2023/07/25 01:07:48;;;;;;;1.70;1.30;;;19.50;88.10;;;;;;4997801;28;20060;-81
2023/07/25 01:10:14;;;;;;;3.33;1.40;;;19.50;88.20;;;;;;4997535;28;20022;-81
2023/07/25 01:12:40;;;;;;;2.75;1.30;;;19.50;88.70;;;;;;4997424;28;20030;-81
2023/07/25 01:15:06;;;;;;;3.05;1.20;;;19.50;88.20;;;;;;4996646;28;20369;-81
2023/07/25 01:17:32;;;;;;;3.85;1.27;;;19.50;88.20;;;;;;4997422;28;20105;-81
2023/07/25 01:19:58;;;;;;;2.65;1.40;;;19.50;88.20;;;;;;4997320;28;20021;-81
2023/07/25 01:22:26;;;;;;;1.80;1.20;;;19.50;88.20;;;;;;4996988;28;20142;-81
2023/07/25 01:24:54;;;;;;;2.83;1.30;;;19.50;88.20;;;;;;4996882;28;20602;-79
2023/07/25 01:27:19;;;;;;;2.83;1.38;;;19.50;88.20;;;;;;4996868;28;20088;-81
2023/07/25 01:29:45;;;;;;;2.40;1.40;;;19.50;88.20;;;;;;4997295;28;20022;-81
2023/07/25 01:32:11;;;;;;;3.55;1.40;;;19.50;88.20;;;;;;4996979;28;20026;-81
2023/07/25 01:34:37;;;;;;;2.80;1.30;;;19.50;88.20;;;;;;4996627;28;20065;-81
2023/07/25 01:37:05;;;;;;;2.05;1.20;;;19.50;88.20;;;;;;4998092;28;20022;-81
2023/07/25 01:39:30;;;;;;;2.97;1.45;;;19.50;88.10;;;;;;5000855;28;20033;-81
2023/07/25 01:41:56;;;;;;;2.58;1.38;;;19.50;88.20;;;;;;5000813;28;20026;-81
2023/07/25 01:44:21;;;;;;;2.70;1.30;;;19.50;88.10;;;;;;5018802;28;20034;-81
2023/07/25 01:46:47;;;;;;;2.70;1.40;;;19.50;88.10;;;;;;5001285;28;20018;-81
2023/07/25 01:49:13;;;;;;;2.28;1.23;;;19.50;88.20;;;;;;5002997;28;20061;-81
2023/07/25 01:51:39;;;;;;;3.38;1.20;;;19.50;88.10;;;;;;5004552;28;20133;-81
2023/07/25 01:54:05;;;;;;;3.03;1.33;;;19.50;88.00;;;;;;5004250;28;20033;-81
2023/07/25 01:56:31;;;;;;;2.50;1.42;;;19.50;87.90;;;;;;5004796;28;20053;-81
2023/07/25 01:58:56;;;;;;;3.90;2.03;;;19.60;87.90;;;;;;5022016;28;20041;-82
2023/07/25 02:01:22;;;;;;;2.80;1.30;;;19.60;87.90;;;;;;5006616;28;20068;-82
2023/07/25 02:03:48;;;;;;;2.35;1.17;;;19.60;87.80;;;;;;5007598;28;20030;-82
2023/07/25 02:06:13;;;;;;;3.22;1.30;;;19.60;87.80;;;;;;5007507;28;20026;-82
2023/07/25 02:08:39;;;;;;;2.70;1.30;;;19.60;87.70;;;;;;5006749;28;20089;-82
2023/07/25 02:11:04;;;;;;;3.13;1.40;;;19.60;87.60;;;;;;5006100;28;20076;-81
2023/07/25 02:13:30;;;;;;;2.75;1.25;;;19.60;87.50;;;;;;5005331;28;20026;-82
2023/07/25 02:15:55;;;;;;;3.08;1.38;;;19.60;87.50;;;;;;5024244;28;20026;-82
2023/07/25 02:18:21;;;;;;;3.40;1.33;;;19.60;87.40;;;;;;5006515;28;20030;-82
2023/07/25 02:20:46;;;;;;;2.58;1.25;;;19.60;87.40;;;;;;5005855;28;20036;-81
2023/07/25 02:23:12;;;;;;;4.40;1.40;;;19.60;87.40;;;;;;5003962;28;20025;-81
2023/07/25 02:25:37;;;;;;;3.45;1.45;;;19.50;87.50;;;;;;5007431;28;20019;-80
2023/07/25 02:28:03;;;;;;;3.38;1.50;;;19.60;87.60;;;;;;5002613;28;20109;-81
2023/07/25 02:30:29;;;;;;;3.30;1.60;;;19.60;87.60;;;;;;5002450;28;20053;-82
2023/07/25 02:32:54;;;;;;;2.45;1.25;;;19.50;87.70;;;;;;5002295;28;20033;-82
2023/07/25 02:35:19;;;;;;;3.78;1.45;;;19.50;87.70;;;;;;5018515;28;20413;-82
2023/07/25 02:37:45;;;;;;;2.95;1.13;;;19.50;87.90;;;;;;5001264;28;20035;-81
2023/07/25 02:40:11;;;;;;;3.67;1.30;;;19.50;88.00;;;;;;4997935;28;20058;-81
2023/07/25 02:42:36;;;;;;;3.22;1.30;;;19.50;88.00;;;;;;5018812;28;20526;-81
2023/07/25 02:45:02;;;;;;;2.30;1.20;;;19.50;88.10;;;;;;5001644;28;20022;-81
2023/07/25 02:47:27;;;;;;;2.45;1.40;;;19.50;88.10;;;;;;5000839;28;20030;-81
2023/07/25 02:49:53;;;;;;;2.50;1.10;;;19.50;88.00;;;;;;5000790;28;20017;-81
2023/07/25 02:52:19;;;;;;;4.50;1.50;;;19.50;88.10;;;;;;5018163;28;20034;-81
2023/07/25 02:54:44;;;;;;;3.13;1.40;;;19.50;88.10;;;;;;4999858;28;20404;-81
2023/07/25 02:57:10;;;;;;;2.22;1.30;;;19.40;88.00;;;;;;4998946;28;20089;-81
2023/07/25 02:59:36;;;;;;;2.03;1.20;;;19.50;88.10;;;;;;5001055;28;20033;-81
2023/07/25 03:02:01;;;;;;;3.05;1.30;;;19.50;88.10;;;;;;5021503;28;20021;-80
2023/07/25 03:04:27;;;;;;;2.53;1.30;;;19.40;88.00;;;;;;5017437;28;20496;-81
2023/07/25 03:06:52;;;;;;;2.28;1.30;;;19.40;88.00;;;;;;5017910;28;20037;-81
2023/07/25 03:09:18;;;;;;;2.75;1.30;;;19.50;88.00;;;;;;5017512;28;20026;-81
2023/07/25 03:11:43;;;;;;;2.30;1.27;;;19.40;88.00;;;;;;4998952;28;20030;-81
2023/07/25 03:14:09;;;;;;;2.53;1.20;;;19.40;87.90;;;;;;4998441;28;20404;-82
2023/07/25 03:16:34;;;;;;;3.88;1.38;;;19.40;87.90;;;;;;4998814;28;20048;-81
2023/07/25 03:19:00;;;;;;;2.33;1.30;;;19.40;87.90;;;;;;4998887;28;20045;-81
2023/07/25 03:21:25;;;;;;;2.50;1.25;;;19.40;87.90;;;;;;4998103;28;20110;-81
2023/07/25 03:23:51;;;;;;;2.55;1.30;;;19.40;87.80;;;;;;4997177;28;20030;-81
2023/07/25 03:26:16;;;;;;;3.35;1.33;;;19.40;87.80;;;;;;5016324;28;20018;-81
2023/07/25 03:28:42;;;;;;;3.30;1.30;;;19.40;87.80;;;;;;4998485;28;20030;-81
2023/07/25 03:31:08;;;;;;;2.25;1.20;;;19.50;87.90;;;;;;4999399;28;20026;-80
2023/07/25 03:33:33;;;;;;;3.30;1.42;;;19.50;87.80;;;;;;4998387;28;20077;-81
2023/07/25 03:35:59;;;;;;;2.17;1.13;;;19.50;87.70;;;;;;4999039;28;20033;-80
2023/07/25 03:38:24;;;;;;;3.42;1.42;;;19.50;87.70;;;;;;4998346;28;20033;-81
2023/07/25 03:40:50;;;;;;;2.50;1.38;;;19.50;87.60;;;;;;4998450;28;20078;-81
2023/07/25 03:43:15;;;;;;;3.17;1.42;;;19.50;87.50;;;;;;4998191;28;20017;-81
2023/07/25 03:45:41;;;;;;;2.10;1.30;;;19.50;87.50;;;;;;4998228;28;20018;-81
2023/07/25 03:48:06;;;;;;;3.15;1.30;;;19.60;87.50;;;;;;5014672;28;20026;-81
2023/07/25 03:50:32;;;;;;;3.30;1.30;;;19.60;87.40;;;;;;4997505;28;20026;-81
2023/07/25 03:52:58;;;;;;;4.60;1.48;;;19.60;87.30;;;;;;4997436;28;20109;-81
2023/07/25 03:55:24;;;;;;;3.15;1.40;;;19.60;87.30;;;;;;4998191;28;20109;-80
2023/07/25 03:57:50;;;;;;;3.53;1.40;;;19.60;87.30;;;;;;5012622;28;20068;-80
2023/07/25 04:00:16;;;;;;;2.70;1.30;;;19.50;87.30;;;;;;4995638;28;20030;-82
2023/07/25 04:02:41;;;;;;;3.05;1.40;;;19.60;87.30;;;;;;5015728;28;20033;-79
2023/07/25 04:05:07;;;;;;;3.53;1.40;;;19.70;87.40;;;;;;4998198;28;20021;-81
2023/07/25 04:07:34;;;;;;;4.20;1.63;;;19.50;87.20;;;;;;4998174;28;20022;-80
2023/07/25 04:10:00;;;;;;;4.90;1.33;;;19.40;87.20;;;;;;5001331;28;20035;-79
2023/07/25 04:12:25;;;;;;;3.55;1.40;;;19.50;87.50;;;;;;4985008;28;20034;-80
2023/07/25 04:14:51;;;;;;;3.47;1.40;;;19.50;87.50;;;;;;5001081;28;20116;-81
2023/07/25 04:17:16;;;;;;;2.75;1.17;;;19.50;87.60;;;;;;5002976;28;20871;-80
2023/07/25 04:19:42;;;;;;;4.30;1.60;;;19.40;87.60;;;;;;4986604;28;20018;-80
2023/07/25 04:22:08;;;;;;;3.60;1.60;;;19.50;87.60;;;;;;5004372;28;20030;-81
2023/07/25 04:28:12;;;;;;;2.30;1.40;;;19.40;87.70;;;;;;4984006;28;20098;-80
2023/07/25 04:30:48;;;;;;;3.92;1.52;;;19.40;87.60;;;;;;5003184;28;20041;-79
2023/07/25 04:33:16;;;;;;;3.20;1.55;;;20.90;88.40;;;;;;4983455;28;20403;-80
2023/07/25 04:36:02;;;;;;;4.30;1.40;;;19.40;87.50;;;;;;4999716;28;20030;-80
2023/07/25 04:38:32;;;;;;;2.47;1.40;;;19.40;87.60;;;;;;4986373;28;20408;-80
2023/07/25 04:41:05;;;;;;;2.85;1.67;;;19.40;87.50;;;;;;5001843;28;20046;-80
2023/07/25 04:43:30;;;;;;;3.28;1.63;;;19.40;87.40;;;;;;5018424;28;20032;-80
2023/07/25 04:45:56;;;;;;;3.08;1.40;;;19.40;87.40;;;;;;4998316;28;20022;-80
2023/07/25 04:48:21;;;;;;;3.17;1.20;;;19.70;87.50;;;;;;4991130;28;20118;-81
2023/07/25 04:50:54;;;;;;;3.55;1.60;;;19.40;87.40;;;;;;5018987;28;20022;-80
2023/07/25 04:53:20;;;;;;;3.85;1.60;;;20.20;87.70;;;;;;5001446;28;20034;-80
2023/07/25 04:55:49;;;;;;;3.30;1.40;;;19.40;87.30;;;;;;5001408;28;20034;-81
2023/07/25 04:58:28;;;;;;;3.38;1.60;;;19.50;87.30;;;;;;5001171;28;20032;-81
2023/07/25 05:00:53;;;;;;;2.92;1.40;;;18.30;86.60;;;;;;5019525;28;20060;-80
2023/07/25 05:03:19;;;;;;;3.70;1.60;;;19.80;87.30;;;;;;5000613;28;20502;-79
2023/07/25 05:05:54;;;;;;;6.50;1.77;;;19.80;87.20;;;;;;5001677;28;20496;-80
2023/07/25 05:08:20;;;;;;;3.55;1.50;;;19.80;87.20;;;;;;5000203;28;20034;-80
2023/07/25 05:10:45;;;;;;;4.30;1.50;;;19.50;87.00;;;;;;4996292;28;20463;-81
2023/07/25 05:13:11;;;;;;;3.47;1.60;;;19.50;87.00;;;;;;4997010;28;20037;-78
2023/07/25 05:15:38;;;;;;;2.00;1.30;;;19.60;87.00;;;;;;5000279;28;20033;-82
2023/07/25 05:18:06;;;;;;;3.10;1.45;;;19.50;87.50;;;;;;5017700;28;20018;-83
2023/07/25 05:20:47;;;;;;;2.53;1.30;;;20.10;87.20;;;;;;5009772;28;20440;-82
2023/07/25 05:23:38;;;;;;;;;;;19.60;86.90;;;;;;5027940;28;20045;-83
2023/07/25 05:26:56;;;;;;;3.55;1.52;;;19.50;86.80;;;;;;5035698;28;20353;-82
2023/07/25 05:29:26;;;;;;;3.03;1.63;;;19.60;86.70;;;;;;5028703;28;20095;-81
2023/07/25 05:34:53;;;;;;;3.92;1.50;;;19.50;86.50;;;;;;5014986;28;20029;-79
2023/07/25 05:37:39;;;;;;;3.10;1.70;;;20.10;86.90;;;;;;5001076;28;20022;-80
2023/07/25 05:40:05;;;;;;;4.13;1.40;;;19.50;86.60;;;;;;5022405;28;20040;-81
2023/07/25 05:42:34;;;;;;;3.92;1.60;;;19.60;86.70;;;;;;5010381;28;20034;-81
2023/07/25 05:45:00;;;;;;;2.97;1.60;;;20.60;87.30;;;;;;5010908;28;20607;-82
2023/07/25 05:47:27;;;;;;;4.15;1.63;;;21.30;87.60;;;;;;5008046;28;20028;-81
2023/07/25 05:49:52;;;;;;;5.00;1.80;;;19.80;86.80;;;;;;5007378;28;20026;-82
2023/07/25 05:52:22;;;;;;;3.83;1.45;;;19.60;86.80;;;;;;5008178;28;20033;-81
2023/07/25 05:54:52;;;;;;;2.58;1.40;;;20.90;87.60;;;;;;5006823;28;20610;-81
2023/07/25 05:57:18;;;;;;;3.58;1.70;;;20.40;87.30;;;;;;5005698;28;20045;-81
2023/07/25 05:59:44;;;;;;;2.63;1.40;;;20.10;87.20;;;;;;5005935;28;20571;-81
2023/07/25 06:02:16;;;;;;;2.35;1.40;;;19.50;86.90;;;;;;5005430;28;20065;-81
2023/07/25 06:04:46;;;;;;;2.70;1.30;;;19.60;87.10;;;;;;5022803;28;20088;-82
2023/07/25 06:07:14;;;;;;;2.88;1.30;;;20.30;87.30;;;;;;5004450;28;20022;-82
2023/07/25 06:09:43;;;;;;;3.17;1.50;;;21.00;87.80;;;;;;5003666;28;20052;-80
2023/07/25 06:12:13;;;;;;;3.33;1.50;;;19.90;87.10;;;;;;5021673;28;20053;-81
2023/07/25 06:14:39;;;;;;;2.67;1.30;;;19.60;87.00;;;;;;5002222;28;20087;-80
2023/07/25 06:17:05;;;;;;;2.53;1.40;;;20.10;87.20;;;;;;5003019;28;20514;-81
2023/07/25 06:19:30;;;;;;;4.18;1.55;;;19.60;86.80;;;;;;5001772;28;20030;-81
2023/07/25 06:21:58;;;;;;;2.90;1.40;;;19.90;87.10;;;;;;5000486;28;20034;-81
2023/07/25 06:24:39;;;;;;;3.50;1.50;;;19.60;86.90;;;;;;4999460;28;20105;-83
2023/07/25 06:27:25;;;;;;;3.08;1.40;;;19.80;87.00;;;;;;5001568;28;20045;-82
2023/07/25 06:30:37;;;;;;;4.35;1.60;;;21.10;87.70;;;;;;4994270;28;20065;-81
2023/07/25 06:33:05;;;;;;;2.35;1.50;;;19.20;86.70;;;;;;4997754;28;20096;-81
2023/07/25 06:35:37;;;;;;;4.30;1.63;;;20.70;87.40;;;;;;5000136;28;20056;-80
2023/07/25 06:38:39;;;;;;;3.47;1.65;;;21.00;87.40;;;;;;4998676;28;20045;-82
2023/07/25 06:41:05;;;;;;;2.97;1.42;;;19.60;86.70;;;;;;4998843;28;20514;-81
2023/07/25 06:43:34;;;;;;;2.22;1.30;;;19.60;86.50;;;;;;4998984;28;20026;-80
2023/07/25 06:46:24;;;;;;;3.70;1.40;;;20.90;87.20;;;;;;4999082;28;20022;-81
2023/07/25 06:48:48;;;;;;;3.13;1.38;;;21.40;87.50;;;;;;5016002;28;20419;-83
2023/07/25 06:51:24;;;;;;;3.35;1.60;;;20.80;86.90;;;;;;5016884;28;20030;-80
2023/07/25 06:53:59;;;;;;;3.05;1.48;;;19.70;86.20;;;;;;4997942;28;20041;-80
2023/07/25 06:56:25;;;;;;;3.03;1.40;;;19.70;86.00;;;;;;4998458;28;20038;-81
2023/07/25 06:58:56;;;;;;;3.25;1.38;;;20.80;86.50;;;;;;5016046;28;20556;-79
2023/07/25 07:01:28;;;;;;;3.08;1.30;;;21.30;86.60;;;;;;4997102;28;20101;-79
2023/07/25 07:04:05;;;;;;;3.13;1.33;;;19.80;85.60;;;;;;5015971;28;20034;-80
2023/07/25 07:06:30;;;;;;;2.58;1.20;;;19.80;85.50;;;;;;4997906;28;20029;-81
2023/07/25 07:09:05;;;;;;;2.80;1.40;;;20.60;85.90;;;;;;4997074;28;20022;-80
2023/07/25 07:11:32;;;;;;;2.60;1.30;;;21.30;86.40;;;;;;4996933;28;20025;-81
2023/07/25 07:13:58;;;;;;;3.67;1.30;;;19.80;85.40;;;;;;5013418;28;20052;-81
2023/07/25 07:17:11;;;;;;;2.45;1.20;;;20.60;85.90;;;;;;4996599;28;20030;-81
2023/07/25 07:20:00;;;;;;;2.78;1.20;;;19.70;85.60;;;;;;4994549;28;20041;-80
2023/07/25 07:22:28;;;;;;;2.88;1.20;;;19.80;85.50;;;;;;4995912;28;20074;-81
2023/07/25 07:24:58;;;;;;;2.13;1.40;;;21.10;86.20;;;;;;4995200;28;20033;-82
2023/07/25 07:27:26;;;;;;;3.40;1.50;;;20.00;85.60;;;;;;4994801;28;20046;-82
2023/07/25 07:29:57;;;;;;;2.30;1.48;;;21.10;86.20;;;;;;4994746;28;20034;-81
2023/07/25 07:32:22;;;;;;;3.28;1.25;;;19.80;85.60;;;;;;4994750;28;20120;-81
2023/07/25 07:35:32;;;;;;;;;;;;;;;;;;;;;
2023/07/25 07:38:03;;;;;;;2.45;1.40;;;19.80;85.50;;;;;;5000948;28;20079;-81
2023/07/25 07:40:29;;;;;;;3.70;1.50;;;20.30;85.80;;;;;;5019040;28;20034;-81
2023/07/25 07:42:55;;;;;;;3.75;1.55;;;19.90;85.70;;;;;;5000702;28;20569;-81
2023/07/25 07:45:23;;;;;;;2.50;1.30;;;19.80;85.70;;;;;;5000900;28;20033;-81
2023/07/25 07:47:49;;;;;;;3.10;1.40;;;19.80;85.70;;;;;;5000789;28;20480;-81
2023/07/25 07:50:14;;;;;;;3.70;1.45;;;19.90;85.80;;;;;;5019835;28;20037;-80
2023/07/25 07:52:41;;;;;;;4.53;1.65;;;19.80;85.60;;;;;;5000807;28;20017;-81
2023/07/25 07:55:09;;;;;;;2.13;1.38;;;19.80;85.70;;;;;;5000392;28;20025;-80
2023/07/25 07:57:41;;;;;;;2.90;1.30;;;19.80;85.70;;;;;;5017551;28;20037;-81
2023/07/25 08:00:08;;;;;;;4.13;1.40;;;19.80;85.70;;;;;;5000554;28;20033;-81
2023/07/25 08:02:33;;;;;;;2.60;1.48;;;19.80;85.70;;;;;;4999623;28;20555;-80
2023/07/25 08:04:59;;;;;;;2.97;1.48;;;19.90;85.60;;;;;;4999923;28;20025;-81
2023/07/25 08:07:24;;;;;;;3.15;1.45;;;19.90;85.60;;;;;;4999718;28;20068;-81
2023/07/25 08:09:54;;;;;;;2.65;1.27;;;19.90;85.60;;;;;;4999500;28;20488;-80
2023/07/25 08:12:20;;;;;;;2.33;1.30;;;19.90;85.60;;;;;;4999514;28;20026;-80
2023/07/25 08:14:45;;;;;;;5.47;1.52;;;19.90;85.60;;;;;;4998869;28;20033;-81
2023/07/25 08:17:11;;;;;;;2.95;1.30;;;19.80;85.50;;;;;;5017438;28;20033;-80
2023/07/25 08:19:36;;;;;;;4.70;1.40;;;19.90;85.50;;;;;;4999251;28;20419;-80
2023/07/25 08:22:02;;;;;;;2.92;1.30;;;19.90;85.50;;;;;;5016962;28;20073;-81
2023/07/25 08:24:27;;;;;;;2.65;1.30;;;19.90;85.60;;;;;;4998658;28;20029;-80
2023/07/25 08:26:53;;;;;;;3.13;1.45;;;19.90;85.60;;;;;;5000512;28;20416;-79
2023/07/25 08:29:18;;;;;;;3.65;1.50;;;19.90;85.60;;;;;;4998437;28;20026;-82
2023/07/25 08:31:44;;;;;;;2.35;1.27;;;19.90;85.50;;;;;;5016256;28;20044;-81
2023/07/25 08:34:09;;;;;;;3.90;1.30;;;19.90;85.50;;;;;;4998598;28;20030;-81
2023/07/25 08:36:35;;;;;;;3.00;1.40;;;19.90;85.40;;;;;;5016294;28;20109;-81
2023/07/25 08:39:00;;;;;;;2.78;1.15;;;20.00;85.30;;;;;;5015941;28;20054;-80
2023/07/25 08:41:29;;;;;;;1.98;1.30;;;20.00;85.30;;;;;;4998099;28;20116;-81
2023/07/25 08:44:00;;;;;;;1.55;1.05;;;20.00;85.20;;;;;;4998026;28;20113;-81
2023/07/25 08:46:27;;;;;;;1.27;1.10;;;20.00;85.10;;;;;;4997631;28;20033;-81
2023/07/25 08:48:59;;;;;;;2.33;1.40;;;20.00;85.10;;;;;;4997981;28;20065;-81
2023/07/25 08:51:28;;;;;;;2.78;1.40;;;20.00;85.00;;;;;;4998149;28;20112;-82
2023/07/25 08:54:02;;;;;;;3.50;1.30;;;20.00;85.00;;;;;;4997554;28;20034;-81
2023/07/25 08:56:29;;;;;;;4.40;1.48;;;20.00;85.10;;;;;;4997939;28;20061;-80
2023/07/25 08:58:55;;;;;;;1.73;1.30;;;20.00;85.20;;;;;;4997802;28;20257;-81
2023/07/25 09:01:21;;;;;;;2.65;1.33;;;20.00;85.10;;;;;;5005806;28;20026;-83
2023/07/25 09:03:48;;;;;;;2.20;1.20;;;20.00;85.00;;;;;;5013850;28;20033;-83
2023/07/25 09:06:14;;;;;;;2.60;1.27;;;20.00;85.20;;;;;;5012982;28;20461;-83
2023/07/25 09:08:40;;;;;;;1.67;1.10;;;20.00;85.30;;;;;;5030440;28;20048;-85
2023/07/25 09:11:08;;;;;;;3.70;1.30;;;20.00;85.40;;;;;;5012611;28;20026;-82
2023/07/25 09:13:34;;;;;;;2.15;1.20;;;19.90;85.50;;;;;;5011808;28;20090;-82
2023/07/25 09:15:59;;;;;;;1.88;1.15;;;19.90;85.60;;;;;;5011708;28;20493;-84
2023/07/25 09:18:25;;;;;;;2.05;1.35;;;19.90;85.80;;;;;;5011382;28;20033;-83
2023/07/25 09:20:50;;;;;;;1.92;1.20;;;19.80;85.80;;;;;;5010839;28;20026;-84
2023/07/25 09:23:22;;;;;;;3.17;1.42;;;19.80;85.90;;;;;;5010737;28;20098;-82
2023/07/25 09:25:49;;;;;;;2.03;1.33;;;19.80;85.90;;;;;;5030081;28;20022;-83
2023/07/25 09:28:14;;;;;;;2.38;1.30;;;19.80;86.00;;;;;;5013697;28;20033;-83
2023/07/25 09:30:48;;;;;;;2.17;1.20;;;19.80;85.90;;;;;;5012334;28;20022;-82
2023/07/25 09:33:27;;;;;;;2.80;1.48;;;19.80;85.90;;;;;;5011900;28;20030;-83
2023/07/25 09:35:53;;;;;;;2.35;1.13;;;19.80;85.90;;;;;;5011747;28;20026;-82
2023/07/25 09:38:19;;;;;;;3.20;1.40;;;19.90;85.90;;;;;;5011573;28;20080;-84
2023/07/25 09:40:49;;;;;;;3.50;1.40;;;19.80;85.90;;;;;;5028578;28;20081;-83
2023/07/25 09:43:25;;;;;;;2.30;1.20;;;19.80;85.90;;;;;;5009801;28;20392;-81
2023/07/25 09:45:52;;;;;;;1.80;1.23;;;19.90;85.90;;;;;;5010125;28;20022;-82
2023/07/25 09:48:18;;;;;;;2.15;1.25;;;19.80;85.90;;;;;;5009676;28;20559;-82
2023/07/25 09:50:44;;;;;;;1.83;1.10;;;19.80;85.90;;;;;;5009278;28;20030;-83
2023/07/25 09:53:12;;;;;;;2.17;1.30;;;19.80;85.90;;;;;;5008787;28;20046;-82
2023/07/25 09:55:37;;;;;;;3.50;1.58;;;19.80;85.90;;;;;;5008341;28;20050;-81
2023/07/25 09:58:04;;;;;;;2.17;1.27;;;19.80;85.90;;;;;;5007223;28;20033;-83
2023/07/25 10:00:30;;;;;;;2.35;1.30;;;19.80;85.90;;;;;;5007515;28;20416;-83
2023/07/25 10:02:56;;;;;;;2.40;1.30;;;19.80;85.90;;;;;;5025111;28;20032;-82
2023/07/25 10:05:23;;;;;;;2.35;1.13;;;19.80;85.90;;;;;;5025213;28;20053;-81
2023/07/25 10:07:49;;;;;;;1.77;1.10;;;19.80;86.40;;;;;;5006703;28;20036;-81
2023/07/25 10:10:17;;;;;;;2.60;1.38;;;19.90;85.80;;;;;;5024198;28;20014;-83
2023/07/25 10:12:42;;;;;;;2.60;1.20;;;19.90;85.70;;;;;;5005557;28;20025;-83
2023/07/25 10:15:10;;;;;;;1.85;1.17;;;20.00;86.00;;;;;;5004906;28;20026;-84
2023/07/25 10:17:35;;;;;;;2.97;1.30;;;20.00;85.40;;;;;;5022986;28;20026;-81
2023/07/25 10:20:05;;;;;;;2.38;1.20;;;20.00;85.20;;;;;;5004914;28;20025;-81
2023/07/25 10:22:42;;;;;;;2.28;1.15;;;20.00;85.10;;;;;;5003913;28;20486;-81
2023/07/25 10:25:17;;;;;;;1.50;1.10;;;20.00;85.10;;;;;;5003733;28;20021;-81
2023/07/25 10:27:43;;;;;;;2.15;1.25;;;20.00;85.10;;;;;;5002858;28;20022;-82
2023/07/25 10:30:22;;;;;;;2.95;1.25;;;20.00;85.00;;;;;;5021038;28;20057;-82
2023/07/25 10:32:51;;;;;;;1.63;1.13;;;20.00;84.90;;;;;;5001484;28;20036;-81
2023/07/25 10:35:37;;;;;;;2.70;1.23;;;20.00;84.90;;;;;;5002204;28;20061;-81
2023/07/25 10:38:08;;;;;;;2.92;1.20;;;20.00;84.90;;;;;;5001770;28;20030;-81
2023/07/25 10:40:51;;;;;;;2.45;1.30;;;20.00;85.00;;;;;;5002271;28;20507;-81
2023/07/25 10:43:17;;;;;;;1.65;1.20;;;20.00;85.10;;;;;;5001727;28;20102;-81
2023/07/25 10:45:48;;;;;;;2.65;1.42;;;20.00;85.10;;;;;;5001844;28;20029;-81
2023/07/25 10:48:30;;;;;;;2.58;1.23;;;20.00;85.20;;;;;;5001410;28;20117;-81
2023/07/25 10:50:57;;;;;;;1.95;1.20;;;20.00;85.20;;;;;;5000954;28;20037;-81
2023/07/25 10:53:24;;;;;;;2.25;1.20;;;20.00;85.30;;;;;;4999980;28;20026;-81
2023/07/25 10:56:07;;;;;;;2.88;1.30;;;20.00;85.30;;;;;;5000620;28;20022;-81
2023/07/25 10:58:40;;;;;;;2.85;1.10;;;20.00;85.30;;;;;;5019369;28;20543;-81
2023/07/25 11:01:06;;;;;;;1.80;1.00;;;20.00;85.20;;;;;;5018257;28;20030;-81
2023/07/25 11:03:36;;;;;;;2.55;1.40;;;20.00;85.20;;;;;;4999449;28;20037;-81
2023/07/25 11:06:08;;;;;;;3.00;1.38;;;20.00;85.20;;;;;;4998320;28;20061;-82
2023/07/25 11:08:34;;;;;;;;;;;20.00;85.20;;;;;;5000058;28;20022;-81
2023/07/25 11:11:03;;;;;;;1.85;1.17;;;20.00;85.20;;;;;;5003149;28;19905;-83
2023/07/25 11:13:34;;;;;;;1.73;1.27;;;20.00;85.20;;;;;;5003209;28;20096;-81
2023/07/25 11:16:04;;;;;;;1.77;1.10;;;20.00;85.20;;;;;;5002637;28;20018;-81
2023/07/25 11:18:33;;;;;;;1.95;1.10;;;20.00;85.30;;;;;;5001974;28;20057;-81
2023/07/25 11:21:04;;;;;;;1.73;1.10;;;20.00;85.30;;;;;;5002306;28;20058;-81
2023/07/25 11:23:30;;;;;;;1.75;1.10;;;20.00;85.30;;;;;;5020521;28;20384;-80
2023/07/25 11:25:59;;;;;;;2.42;1.13;;;20.00;85.40;;;;;;5002353;28;20026;-81
2023/07/25 11:28:25;;;;;;;1.98;1.30;;;20.00;85.40;;;;;;5001835;28;20025;-81
2023/07/25 11:30:54;;;;;;;2.05;1.10;;;20.00;85.30;;;;;;5020425;28;20049;-81
2023/07/25 11:33:20;;;;;;;2.28;1.33;;;20.00;85.30;;;;;;5001047;28;20029;-81
2023/07/25 11:35:51;;;;;;;2.25;1.10;;;20.00;85.20;;;;;;5001091;28;20080;-81
2023/07/25 11:38:17;;;;;;;;;;;20.00;85.30;;;;;;5001327;28;20182;-82
2023/07/25 11:40:50;;;;;;;2.42;1.10;;;20.10;85.30;;;;;;5018873;28;20536;-81
2023/07/25 11:43:15;;;;;;;2.60;1.20;;;20.10;85.20;;;;;;5018458;28;20180;-82
2023/07/25 11:45:43;;;;;;;2.45;1.20;;;20.00;85.10;;;;;;5017901;28;20571;-81
2023/07/25 11:48:11;;;;;;;1.90;1.08;;;20.10;85.10;;;;;;5000470;28;20409;-82
2023/07/25 11:50:37;;;;;;;2.30;1.20;;;20.10;84.90;;;;;;4999772;28;20484;-81
2023/07/25 11:53:03;;;;;;;1.95;1.10;;;20.20;84.80;;;;;;5000133;28;20026;-81
2023/07/25 11:55:29;;;;;;;2.60;1.27;;;20.20;85.10;;;;;;4999975;28;20029;-81
2023/07/25 11:57:55;;;;;;;2.72;1.20;;;20.20;84.60;;;;;;5000408;28;20707;-81
2023/07/25 12:00:22;;;;;;;2.33;1.20;;;20.20;84.50;;;;;;5000093;28;20038;-81
2023/07/25 12:02:48;;;;;;;2.38;1.35;;;20.20;84.50;;;;;;5017726;28;20033;-81
2023/07/25 12:05:28;;;;;;;2.70;1.10;;;20.20;84.50;;;;;;4999533;28;20076;-81
2023/07/25 12:08:02;;;;;;;2.10;1.10;;;20.20;84.40;;;;;;4999381;28;20377;-81
2023/07/25 12:10:35;;;;;;;1.73;1.20;;;20.30;84.30;;;;;;4999029;28;20030;-81
2023/07/25 12:13:03;;;;;;;2.10;1.30;;;20.30;84.30;;;;;;4999567;28;20036;-79
2023/07/25 12:15:43;;;;;;;1.88;1.10;;;20.20;84.30;;;;;;5016873;28;20040;-81
2023/07/25 12:18:28;;;;;;;2.23;1.10;;;20.20;84.40;;;;;;4999391;28;20022;-81
2023/07/25 12:20:55;;;;;;;2.15;1.30;;;20.20;84.50;;;;;;5016275;28;20034;-81
2023/07/25 12:23:32;;;;;;;2.10;1.20;;;20.20;84.60;;;;;;4998617;28;20057;-81
2023/07/25 12:26:00;;;;;;;1.67;1.20;;;20.20;84.70;;;;;;4998545;28;20017;-81
2023/07/25 12:28:40;;;;;;;2.13;1.02;;;20.10;84.80;;;;;;4998714;28;20022;-82
2023/07/25 12:31:06;;;;;;;2.63;1.23;;;20.10;84.90;;;;;;4998558;28;20129;-82
2023/07/25 12:33:32;;;;;;;2.22;1.30;;;20.10;85.00;;;;;;4998254;28;20121;-81
2023/07/25 12:35:57;;;;;;;2.10;1.20;;;20.10;85.00;;;;;;4998212;28;20136;-81
2023/07/25 12:38:23;;;;;;;1.70;1.00;;;20.10;85.00;;;;;;5016208;28;20026;-81
2023/07/25 12:40:49;;;;;;;1.55;1.10;;;20.00;85.00;;;;;;4997916;28;20026;-81
2023/07/25 12:43:14;;;;;;;1.50;1.10;;;20.10;85.20;;;;;;4998038;28;20076;-81
2023/07/25 12:45:40;;;;;;;1.90;1.00;;;20.00;85.20;;;;;;5014879;28;20026;-81
2023/07/25 12:48:06;;;;;;;1.25;1.02;;;20.00;85.20;;;;;;5015463;28;20439;-84
2023/07/25 12:50:31;;;;;;;2.22;1.25;;;20.00;85.30;;;;;;5013658;28;20026;-83
2023/07/25 12:52:57;;;;;;;2.88;1.40;;;20.00;85.30;;;;;;5013496;28;20415;-84
2023/07/25 12:55:22;;;;;;;2.08;1.05;;;20.00;85.40;;;;;;5029787;28;20061;-81
2023/07/25 12:57:48;;;;;;;2.28;1.20;;;20.00;85.40;;;;;;5012685;28;20113;-84
2023/07/25 13:00:14;;;;;;;2.15;1.20;;;20.00;85.40;;;;;;5029560;28;20041;-81
2023/07/25 13:02:39;;;;;;;2.00;1.20;;;20.00;85.40;;;;;;5011917;28;20033;-81